ロサンゼルス の空港の天気 - METARとTAF

ロサンゼルス国際空港 ( KLAX / LAX ) - アメリカ カリフォルニア州ロサンゼルス
飛行場実況気象(Metar)
観測時間10/28 09:53 PDT (10/28 16:53 UTC)
風向・風速東 2m/s
視程10km以上
天気現象
なし
気温19.4℃
湿度47%
気圧1018.8hPa
METARKLAX 281653Z 10004KT 10SM CLR 19/08 A3009 RMK AO2 SLP188 T01940078 $
過去の天気等 Google飛行場航空写真 Wunderground天気予報

過去48時間のMETAR

飛行場予報(TAF)
発表時間: 10/28 10:26 PDT (10/28 17:26 UTC)
予報対象時間: 28日11時 PDT ~ 29日17時 PDT
風向・風速東 2m/s
視程10km以上
なし
28日12時 PDT から
風向・風速西南西 3m/s
視程10km以上
なし
28日15時 PDT から
風向・風速西 6m/s
視程10km以上
なし
28日20時 PDT から
風向・風速不定 2m/s
視程10km以上
なし
29日10時 PDT から
風向・風速西 3m/s
視程10km以上
なし
29日15時 PDT から
風向・風速西 6m/s
視程10km以上
なし
KLAX 281726Z 2818/2924 10004KT P6SM SKC
FM281900 24006KT P6SM SKC
FM282200 26012KT P6SM SKC
FM290300 VRB03KT P6SM SKC
FM291700 26006KT P6SM SKC
FM292200 26012KT P6SM SKC